createdAt,value
2022-08-27T00:00:47.239Z,22.90
2022-08-27T00:03:14.119Z,25.90
2022-08-27T00:05:41.321Z,22.23
2022-08-27T00:08:09.769Z,19.70
2022-08-27T00:10:36.522Z,26.63
2022-08-27T00:13:03.181Z,24.53
2022-08-27T00:15:30.074Z,28.90
2022-08-27T00:17:56.935Z,20.60
2022-08-27T00:20:26.017Z,21.20
2022-08-27T00:22:53.445Z,16.50
2022-08-27T00:25:20.958Z,17.90
2022-08-27T00:27:47.668Z,14.40
2022-08-27T00:30:16.448Z,19.73
2022-08-27T00:32:43.438Z,22.30
2022-08-27T00:35:11.633Z,18.77
2022-08-27T00:37:38.461Z,18.30
2022-08-27T00:40:07.915Z,20.63
2022-08-27T00:42:34.596Z,22.63
2022-08-27T00:45:01.377Z,21.73
2022-08-27T00:47:30.652Z,25.90
2022-08-27T00:50:18.862Z,23.53
2022-08-27T00:52:53.068Z,34.47
2022-08-27T00:55:24.844Z,26.93
2022-08-27T00:58:00.297Z,25.63
2022-08-27T01:00:29.848Z,26.27
2022-08-27T01:02:56.491Z,26.70
2022-08-27T01:05:26.438Z,18.70
2022-08-27T01:07:56.575Z,24.83
2022-08-27T01:10:25.353Z,21.37
2022-08-27T01:12:54.169Z,21.43
2022-08-27T01:15:22.366Z,21.23
2022-08-27T01:17:49.417Z,18.57
2022-08-27T01:20:23.182Z,29.53
2022-08-27T01:23:04.137Z,17.50
2022-08-27T01:25:31.111Z,19.13
2022-08-27T01:28:00.566Z,26.80
2022-08-27T01:30:27.639Z,16.93
2022-08-27T01:32:54.722Z,19.73
2022-08-27T01:35:21.941Z,20.83
2022-08-27T01:37:50.489Z,17.60
2022-08-27T01:40:20.289Z,18.30
2022-08-27T01:42:49.597Z,12.80
2022-08-27T01:45:24.581Z,18.13
2022-08-27T01:47:51.688Z,15.60
2022-08-27T01:50:23.338Z,15.73
2022-08-27T01:52:51.342Z,12.93
2022-08-27T01:55:20.608Z,17.83
2022-08-27T01:57:48.388Z,16.63
2022-08-27T02:00:25.125Z,17.13
2022-08-27T02:02:52.142Z,21.73
2022-08-27T02:05:19.227Z,14.53
2022-08-27T02:07:46.737Z,15.63
2022-08-27T02:10:19.481Z,18.20
2022-08-27T02:12:46.658Z,17.33
2022-08-27T02:15:13.990Z,10.63
2022-08-27T02:17:44.015Z,12.73
2022-08-27T02:20:11.133Z,13.77
2022-08-27T02:22:38.614Z,13.20
2022-08-27T02:25:07.094Z,14.53
2022-08-27T02:27:37.063Z,13.00
2022-08-27T02:30:04.624Z,18.37
2022-08-27T02:32:32.028Z,16.63
2022-08-27T02:34:59.267Z,18.57
2022-08-27T02:37:25.961Z,17.73
2022-08-27T02:39:54.621Z,21.13
2022-08-27T02:42:21.363Z,18.60
2022-08-27T02:44:48.395Z,18.20
2022-08-27T02:47:16.693Z,16.60
2022-08-27T02:49:44.391Z,18.13
2022-08-27T02:52:11.432Z,12.70
2022-08-27T02:54:38.204Z,12.50
2022-08-27T02:57:05.862Z,12.80
2022-08-27T02:59:32.510Z,14.47
2022-08-27T03:01:59.234Z,8.20
2022-08-27T03:04:27.911Z,16.37
2022-08-27T03:06:55.426Z,13.30
2022-08-27T03:09:22.110Z,16.93
2022-08-27T03:11:50.998Z,10.30
2022-08-27T03:14:17.599Z,15.87
2022-08-27T03:16:48.418Z,22.17
2022-08-27T03:19:19.804Z,7.87
2022-08-27T03:21:54.497Z,8.03
2022-08-27T03:24:21.729Z,13.77
2022-08-27T03:26:53.897Z,13.07
2022-08-27T03:29:20.990Z,14.83
2022-08-27T03:31:47.758Z,12.30
2022-08-27T03:34:19.773Z,9.30
2022-08-27T03:36:48.744Z,13.57
2022-08-27T03:39:15.416Z,13.23
2022-08-27T03:41:54.982Z,12.50
2022-08-27T03:44:23.854Z,10.60
2022-08-27T03:46:51.957Z,9.77
2022-08-27T03:49:21.382Z,11.43
2022-08-27T03:51:49.967Z,10.97
2022-08-27T03:54:16.767Z,14.30
2022-08-27T03:56:43.450Z,16.80
2022-08-27T03:59:10.155Z,14.67
2022-08-27T04:01:39.159Z,14.07
2022-08-27T04:04:06.055Z,13.93
2022-08-27T04:06:35.127Z,13.90
2022-08-27T04:09:02.321Z,8.03
2022-08-27T04:11:29.429Z,12.27
2022-08-27T04:13:56.452Z,13.53
2022-08-27T04:16:23.106Z,12.47
2022-08-27T04:18:49.856Z,12.53
2022-08-27T04:21:16.557Z,10.40
2022-08-27T04:23:43.296Z,15.30
2022-08-27T04:26:11.154Z,10.07
2022-08-27T04:28:39.296Z,9.30
2022-08-27T04:31:16.649Z,7.10
2022-08-27T04:33:50.652Z,13.30
2022-08-27T04:36:18.185Z,9.57
2022-08-27T04:38:44.902Z,10.17
2022-08-27T04:41:21.223Z,11.50
2022-08-27T04:43:58.929Z,10.57
2022-08-27T04:46:28.673Z,11.90
2022-08-27T04:48:57.394Z,5.93
2022-08-27T04:51:24.950Z,7.80
2022-08-27T04:53:51.848Z,7.60
2022-08-27T04:56:21.258Z,7.47
2022-08-27T04:58:48.475Z,8.47
2022-08-27T05:01:21.889Z,8.97
2022-08-27T05:03:48.921Z,10.77
2022-08-27T05:06:16.074Z,6.73
2022-08-27T05:08:42.791Z,9.13
2022-08-27T05:11:12.345Z,13.03
2022-08-27T05:13:39.815Z,10.03
2022-08-27T05:16:08.814Z,6.80
2022-08-27T05:18:42.367Z,8.67
2022-08-27T05:21:27.236Z,10.70
2022-08-27T05:23:57.332Z,5.27
2022-08-27T05:26:24.221Z,10.73
2022-08-27T05:28:51.401Z,7.80
2022-08-27T05:31:19.575Z,10.07
2022-08-27T05:33:46.946Z,6.37
2022-08-27T05:36:22.674Z,11.13
2022-08-27T05:38:50.332Z,10.53
2022-08-27T05:41:19.799Z,11.13
2022-08-27T05:43:50.191Z,12.00
2022-08-27T05:46:20.240Z,5.53
2022-08-27T05:48:48.059Z,5.70
2022-08-27T05:51:25.184Z,10.83
2022-08-27T05:53:56.446Z,8.70
2022-08-27T05:56:25.006Z,7.30
2022-08-27T05:59:10.198Z,7.40
2022-08-27T06:01:44.924Z,11.53
2022-08-27T06:04:11.891Z,6.93
2022-08-27T06:06:45.361Z,13.23
2022-08-27T06:09:14.537Z,8.27
2022-08-27T06:11:41.510Z,6.50
2022-08-27T06:14:11.438Z,6.33
2022-08-27T06:16:38.489Z,8.00
2022-08-27T06:19:06.719Z,6.67
2022-08-27T06:21:33.514Z,5.13
2022-08-27T06:24:00.443Z,7.13
2022-08-27T06:26:27.986Z,12.77
2022-08-27T06:29:03.508Z,9.23
2022-08-27T06:31:35.121Z,11.57
2022-08-27T06:34:07.474Z,7.00
2022-08-27T06:36:38.150Z,6.43
2022-08-27T06:39:13.276Z,7.27
2022-08-27T06:41:42.711Z,4.90
2022-08-27T06:44:22.247Z,6.80
2022-08-27T06:46:49.345Z,3.70
2022-08-27T06:49:16.092Z,9.47
2022-08-27T06:51:45.731Z,6.17
2022-08-27T06:54:29.364Z,10.60
2022-08-27T06:57:01.882Z,3.90
2022-08-27T06:59:28.504Z,4.40
2022-08-27T07:01:55.245Z,4.10
2022-08-27T07:04:30.741Z,13.23
2022-08-27T07:07:00.665Z,9.50
2022-08-27T07:09:27.330Z,13.90
2022-08-27T07:11:54.775Z,15.70
2022-08-27T07:14:21.953Z,4.80
2022-08-27T07:16:49.479Z,6.70
2022-08-27T07:19:19.214Z,11.10
2022-08-27T07:21:50.639Z,10.03
2022-08-27T07:24:17.687Z,5.97
2022-08-27T07:26:44.648Z,8.00
2022-08-27T07:29:15.226Z,6.50
2022-08-27T07:31:42.225Z,7.30
2022-08-27T07:34:08.918Z,14.87
2022-08-27T07:36:36.034Z,8.47
2022-08-27T07:39:02.777Z,13.27
2022-08-27T07:41:31.810Z,9.17
2022-08-27T07:44:20.932Z,4.70
2022-08-27T07:46:54.516Z,4.37
2022-08-27T07:49:22.238Z,6.03
2022-08-27T07:51:49.651Z,8.73
2022-08-27T07:54:16.879Z,4.37
2022-08-27T07:56:44.285Z,8.40
2022-08-27T07:59:24.223Z,12.73
2022-08-27T08:01:51.676Z,9.00
2022-08-27T08:04:20.451Z,8.33
2022-08-27T08:06:47.572Z,7.30
2022-08-27T08:09:14.623Z,5.77
2022-08-27T08:11:41.329Z,11.73
2022-08-27T08:14:07.967Z,8.10
2022-08-27T08:16:34.739Z,6.47
2022-08-27T08:19:02.061Z,7.67
2022-08-27T08:21:28.821Z,5.23
2022-08-27T08:23:55.576Z,8.03
2022-08-27T08:26:23.145Z,14.33
2022-08-27T08:28:49.781Z,6.57
2022-08-27T08:31:16.571Z,9.07
2022-08-27T08:33:43.356Z,6.97
2022-08-27T08:36:12.895Z,8.23
2022-08-27T08:38:40.416Z,5.60
2022-08-27T08:41:26.486Z,4.87
2022-08-27T08:43:53.832Z,9.70
2022-08-27T08:46:37.841Z,6.40
2022-08-27T08:49:23.654Z,8.20
2022-08-27T08:51:52.014Z,5.97
2022-08-27T08:54:21.166Z,16.37
2022-08-27T08:57:02.051Z,9.83
2022-08-27T08:59:34.709Z,8.03
2022-08-27T09:02:01.418Z,7.97
2022-08-27T09:04:30.618Z,8.90
2022-08-27T09:07:08.976Z,6.37
2022-08-27T09:10:12.020Z,7.87
2022-08-27T09:12:52.453Z,6.60
2022-08-27T09:15:26.133Z,5.87
2022-08-27T09:17:54.899Z,6.90
2022-08-27T09:20:27.422Z,7.97
2022-08-27T09:23:31.310Z,7.10
2022-08-27T09:26:00.922Z,6.60
2022-08-27T09:28:59.822Z,12.23
2022-08-27T09:32:01.847Z,11.93
2022-08-27T09:37:51.257Z,8.30
2022-08-27T09:40:32.303Z,8.63
2022-08-27T09:43:11.005Z,10.80
2022-08-27T09:45:57.624Z,4.43
2022-08-27T09:48:38.171Z,9.40
2022-08-27T09:51:21.719Z,6.00
2022-08-27T09:53:55.900Z,7.10
2022-08-27T09:56:43.615Z,10.63
2022-08-27T09:59:13.097Z,6.40
2022-08-27T10:02:18.372Z,6.53
2022-08-27T10:04:51.972Z,8.20
2022-08-27T10:07:33.324Z,5.37
2022-08-27T10:10:20.326Z,8.80
2022-08-27T10:12:51.857Z,5.50
2022-08-27T10:15:18.611Z,6.83
2022-08-27T10:18:07.851Z,7.33
2022-08-27T10:21:18.545Z,7.17
2022-08-27T10:24:02.261Z,11.63
2022-08-27T10:26:55.665Z,9.40
2022-08-27T10:33:13.837Z,9.53
2022-08-27T10:35:55.094Z,11.13
2022-08-27T10:39:13.925Z,11.60
2022-08-27T10:42:15.048Z,7.30
2022-08-27T10:45:31.052Z,8.43
2022-08-27T10:48:56.036Z,7.73
2022-08-27T10:52:03.228Z,9.50
2022-08-27T10:55:27.075Z,11.07
2022-08-27T11:03:58.427Z,7.20
2022-08-27T11:07:00.647Z,11.60
2022-08-27T11:09:57.983Z,6.80
2022-08-27T11:12:55.421Z,10.97
2022-08-27T11:18:59.607Z,10.67
2022-08-27T11:21:39.281Z,10.83
2022-08-27T11:28:52.414Z,8.57
2022-08-27T11:31:44.638Z,7.60
2022-08-27T11:41:16.624Z,8.90
2022-08-27T11:43:50.994Z,8.17
2022-08-27T11:50:20.586Z,10.67
2022-08-27T12:00:20.042Z,8.00
2022-08-27T12:03:29.401Z,8.40
2022-08-27T12:06:07.365Z,6.60
2022-08-27T12:09:26.219Z,9.10
2022-08-27T12:19:29.749Z,8.80
2022-08-27T12:22:11.936Z,9.63
2022-08-27T12:25:20.566Z,7.60
2022-08-27T12:28:35.715Z,10.50
2022-08-27T12:31:10.348Z,8.37
2022-08-27T12:33:55.221Z,8.07
2022-08-27T12:36:57.112Z,8.00
2022-08-27T12:39:37.140Z,10.97
2022-08-27T12:42:23.530Z,8.13
2022-08-27T12:48:12.698Z,11.10
2022-08-27T12:50:53.922Z,8.40
2022-08-27T12:54:05.284Z,7.03
2022-08-27T12:57:37.846Z,8.87
2022-08-27T13:04:32.630Z,6.80
2022-08-27T13:07:37.859Z,7.00
2022-08-27T13:10:19.468Z,6.57
2022-08-27T13:12:48.051Z,6.43
2022-08-27T13:18:14.735Z,9.80
2022-08-27T13:21:13.908Z,7.43
2022-08-27T13:23:55.495Z,7.97
2022-08-27T13:27:03.465Z,9.53
2022-08-27T13:30:22.879Z,9.00
2022-08-27T13:33:04.305Z,7.13
2022-08-27T13:35:49.646Z,7.10
2022-08-27T13:38:19.620Z,5.30
2022-08-27T13:41:27.788Z,8.60
2022-08-27T13:43:59.253Z,6.03
2022-08-27T13:46:32.117Z,7.20
2022-08-27T13:49:02.260Z,5.90
2022-08-27T13:51:34.766Z,12.10
2022-08-27T13:54:12.969Z,9.47
2022-08-27T13:56:53.407Z,8.80
2022-08-27T13:59:20.252Z,6.37
2022-08-27T14:02:10.251Z,7.40
2022-08-27T14:04:44.769Z,5.90
2022-08-27T14:07:13.640Z,6.33
2022-08-27T14:09:54.346Z,3.80
2022-08-27T14:12:32.730Z,9.20
2022-08-27T14:15:19.020Z,8.60
2022-08-27T14:17:46.925Z,11.10
2022-08-27T14:20:17.732Z,8.50
2022-08-27T14:22:50.875Z,7.47
2022-08-27T14:25:19.042Z,6.20
2022-08-27T14:27:57.184Z,9.80
2022-08-27T14:30:29.233Z,10.57
2022-08-27T14:33:00.795Z,12.10
2022-08-27T14:36:32.478Z,7.33
2022-08-27T14:38:59.756Z,8.80
2022-08-27T14:41:48.730Z,11.37
2022-08-27T14:44:17.301Z,9.90
2022-08-27T14:46:44.745Z,9.80
2022-08-27T14:49:15.301Z,12.63
2022-08-27T14:51:47.608Z,7.87
2022-08-27T14:54:14.278Z,8.93
2022-08-27T14:56:41.445Z,8.70
2022-08-27T14:59:08.175Z,13.30
2022-08-27T15:01:38.142Z,12.03
2022-08-27T15:04:05.745Z,10.60
2022-08-27T15:06:32.520Z,11.13
2022-08-27T15:09:00.439Z,6.83
2022-08-27T15:11:32.255Z,5.23
2022-08-27T15:14:14.441Z,9.27
2022-08-27T15:16:50.804Z,7.80
2022-08-27T15:19:17.480Z,12.67
2022-08-27T15:21:45.617Z,4.90
2022-08-27T15:24:26.178Z,4.93
2022-08-27T15:26:57.290Z,11.70
2022-08-27T15:29:24.779Z,8.80
2022-08-27T15:31:51.822Z,6.30
2022-08-27T15:34:18.738Z,5.23
2022-08-27T15:36:45.614Z,9.53
2022-08-27T15:39:12.559Z,8.40
2022-08-27T15:41:56.644Z,9.07
2022-08-27T15:44:27.106Z,7.77
2022-08-27T15:46:53.803Z,6.93
2022-08-27T15:49:20.817Z,7.53
2022-08-27T15:51:47.559Z,7.33
2022-08-27T15:54:14.260Z,10.13
2022-08-27T15:56:43.245Z,8.30
2022-08-27T15:59:09.967Z,8.13
2022-08-27T16:01:37.347Z,7.97
2022-08-27T16:04:04.980Z,7.60
2022-08-27T16:06:32.045Z,6.47
2022-08-27T16:09:01.873Z,5.70
2022-08-27T16:11:28.643Z,7.90
2022-08-27T16:13:55.856Z,11.27
2022-08-27T16:16:29.659Z,5.50
2022-08-27T16:19:00.238Z,12.83
2022-08-27T16:21:27.523Z,10.93
2022-08-27T16:23:54.148Z,12.87
2022-08-27T16:26:20.813Z,8.87
2022-08-27T16:28:49.869Z,6.10
2022-08-27T16:31:16.759Z,9.10
2022-08-27T16:33:43.751Z,9.30
2022-08-27T16:36:10.853Z,6.57
2022-08-27T16:38:37.599Z,7.30
2022-08-27T16:41:08.893Z,7.03
2022-08-27T16:43:35.619Z,6.50
2022-08-27T16:46:06.479Z,7.23
2022-08-27T16:49:01.494Z,9.43
2022-08-27T16:51:33.791Z,7.23
2022-08-27T16:54:08.206Z,6.90
2022-08-27T16:56:37.743Z,7.63
2022-08-27T16:59:04.814Z,5.87
2022-08-27T17:01:33.623Z,10.03
2022-08-27T17:04:16.116Z,7.67
2022-08-27T17:06:57.577Z,7.77
2022-08-27T17:09:34.945Z,6.90
2022-08-27T17:12:04.479Z,5.03
2022-08-27T17:14:37.958Z,12.60
2022-08-27T17:17:06.109Z,12.07
2022-08-27T17:19:34.813Z,11.00
2022-08-27T17:22:03.508Z,5.00
2022-08-27T17:24:30.404Z,11.13
2022-08-27T17:26:57.328Z,8.60
2022-08-27T17:29:24.027Z,7.53
2022-08-27T17:31:50.714Z,5.27
2022-08-27T17:34:23.232Z,9.90
2022-08-27T17:36:55.283Z,5.50
2022-08-27T17:39:22.300Z,9.73
2022-08-27T17:41:54.908Z,6.40
2022-08-27T17:44:33.279Z,10.07
2022-08-27T17:47:03.754Z,15.37
2022-08-27T17:49:33.301Z,9.00
2022-08-27T17:52:03.538Z,9.50
2022-08-27T17:54:32.634Z,7.07
2022-08-27T17:57:00.408Z,12.03
2022-08-27T17:59:27.139Z,8.53
2022-08-27T18:01:57.054Z,10.00
2022-08-27T18:04:26.457Z,7.73
2022-08-27T18:06:55.700Z,8.27
2022-08-27T18:09:24.427Z,6.00
2022-08-27T18:11:51.116Z,5.80
2022-08-27T18:14:18.588Z,7.00
2022-08-27T18:16:56.386Z,8.73
2022-08-27T18:19:23.268Z,10.13
2022-08-27T18:21:50.845Z,12.20
2022-08-27T18:24:19.794Z,9.93
2022-08-27T18:26:47.370Z,8.97
2022-08-27T18:29:15.128Z,16.37
2022-08-27T18:31:42.629Z,16.87
2022-08-27T18:34:09.256Z,4.20
2022-08-27T18:36:38.128Z,10.00
2022-08-27T18:39:04.828Z,6.80
2022-08-27T18:41:31.664Z,8.27
2022-08-27T18:43:58.928Z,9.73
2022-08-27T18:46:26.107Z,4.20
2022-08-27T18:48:55.572Z,6.50
2022-08-27T18:51:22.322Z,7.03
2022-08-27T18:53:49.026Z,6.93
2022-08-27T18:56:18.923Z,5.40
2022-08-27T18:58:46.688Z,10.50
2022-08-27T19:01:19.227Z,5.50
2022-08-27T19:03:48.722Z,7.70
2022-08-27T19:06:17.943Z,7.83
2022-08-27T19:08:48.906Z,4.87
2022-08-27T19:11:15.861Z,8.83
2022-08-27T19:13:42.816Z,7.00
2022-08-27T19:19:47.663Z,6.80
2022-08-27T19:22:30.499Z,13.83
2022-08-27T19:24:58.006Z,8.53
2022-08-27T19:27:25.733Z,10.30
2022-08-27T19:29:54.992Z,6.20
2022-08-27T19:32:22.112Z,12.57
2022-08-27T19:34:48.788Z,6.20
2022-08-27T19:37:27.396Z,7.30
2022-08-27T19:39:54.254Z,10.13
2022-08-27T19:42:21.135Z,5.20
2022-08-27T19:44:48.279Z,6.63
2022-08-27T19:47:16.349Z,11.00
2022-08-27T19:49:49.776Z,9.00
2022-08-27T19:52:16.525Z,7.23
2022-08-27T19:55:03.316Z,10.23
2022-08-27T19:57:30.038Z,9.60
2022-08-27T19:59:59.443Z,10.87
2022-08-27T20:02:26.449Z,9.07
2022-08-27T20:05:16.497Z,9.57
2022-08-27T20:07:40.094Z,9.47
2022-08-27T20:10:08.750Z,7.33
2022-08-27T20:12:45.711Z,10.70
2022-08-27T20:15:13.019Z,7.67
2022-08-27T20:17:41.269Z,9.00
2022-08-27T20:20:09.104Z,10.53
2022-08-27T20:22:35.931Z,11.33
2022-08-27T20:25:02.619Z,7.27
2022-08-27T20:27:29.276Z,12.53
2022-08-27T20:29:56.081Z,9.33
2022-08-27T20:32:25.721Z,14.03
2022-08-27T20:34:56.037Z,12.30
2022-08-27T20:37:22.742Z,10.93
2022-08-27T20:39:50.413Z,8.60
2022-08-27T20:42:19.603Z,13.20
2022-08-27T20:44:47.129Z,8.60
2022-08-27T20:47:13.872Z,7.73
2022-08-27T20:49:41.621Z,9.77
2022-08-27T20:52:11.467Z,12.20
2022-08-27T20:54:41.725Z,12.73
2022-08-27T20:57:11.431Z,10.80
2022-08-27T20:59:57.405Z,11.13
2022-08-27T21:02:26.338Z,13.07
2022-08-27T21:04:53.817Z,13.83
2022-08-27T21:07:21.326Z,13.57
2022-08-27T21:09:55.854Z,13.00
2022-08-27T21:12:29.540Z,10.97
2022-08-27T21:14:57.966Z,22.50
2022-08-27T21:17:26.937Z,10.23
2022-08-27T21:19:56.077Z,11.97
2022-08-27T21:22:23.550Z,11.93
2022-08-27T21:24:50.527Z,15.20
2022-08-27T21:27:18.447Z,11.13
2022-08-27T21:29:45.611Z,10.93
2022-08-27T21:32:15.827Z,12.63
2022-08-27T21:34:42.945Z,17.50
2022-08-27T21:37:11.468Z,11.57
2022-08-27T21:39:49.323Z,12.63
2022-08-27T21:42:16.091Z,25.90
2022-08-27T21:44:43.258Z,14.30
2022-08-27T21:47:15.995Z,10.37
2022-08-27T21:49:42.737Z,15.37
2022-08-27T21:52:09.485Z,17.00
2022-08-27T21:54:39.592Z,13.10
2022-08-27T21:57:06.932Z,18.00
2022-08-27T21:59:39.857Z,15.73
2022-08-27T22:02:23.038Z,14.10
2022-08-27T22:04:54.319Z,13.43
2022-08-27T22:07:20.975Z,11.93
2022-08-27T22:09:52.948Z,15.23
2022-08-27T22:12:19.612Z,10.90
2022-08-27T22:14:46.362Z,11.67
2022-08-27T22:17:15.804Z,13.13
2022-08-27T22:19:42.976Z,14.33
2022-08-27T22:22:09.680Z,10.47
2022-08-27T22:24:36.337Z,11.67
2022-08-27T22:27:03.010Z,14.70
2022-08-27T22:29:30.790Z,8.50
2022-08-27T22:31:57.493Z,14.50
2022-08-27T22:34:27.491Z,11.57
2022-08-27T22:36:56.727Z,17.70
2022-08-27T22:39:24.087Z,11.50
2022-08-27T22:41:52.054Z,12.70
2022-08-27T22:44:26.441Z,20.00
2022-08-27T22:46:53.211Z,9.23
2022-08-27T22:49:21.458Z,11.33
2022-08-27T22:51:49.426Z,17.40
2022-08-27T22:54:19.288Z,15.47
2022-08-27T22:56:45.932Z,23.70
2022-08-27T22:59:12.717Z,16.33
2022-08-27T23:01:39.504Z,16.77
2022-08-27T23:04:07.831Z,30.73
2022-08-27T23:06:34.719Z,10.83
2022-08-27T23:09:01.837Z,19.97
2022-08-27T23:11:31.624Z,18.07
2022-08-27T23:13:59.075Z,15.33
2022-08-27T23:16:25.821Z,15.67
2022-08-27T23:18:52.519Z,18.97
2022-08-27T23:21:19.159Z,15.40
2022-08-27T23:23:46.117Z,13.83
2022-08-27T23:26:31.285Z,15.77
2022-08-27T23:28:58.487Z,21.53
2022-08-27T23:31:29.715Z,14.80
2022-08-27T23:33:57.406Z,16.77
2022-08-27T23:36:24.079Z,16.10
2022-08-27T23:38:51.488Z,19.13
2022-08-27T23:41:18.219Z,16.40
2022-08-27T23:43:47.884Z,13.47
2022-08-27T23:46:14.539Z,15.97
2022-08-27T23:48:41.212Z,14.93
2022-08-27T23:51:09.340Z,20.80
2022-08-27T23:53:37.619Z,14.50
2022-08-27T23:56:05.029Z,15.00
2022-08-27T23:58:32.690Z,17.37
